createdAt,value
2016-02-15T00:00:09.925Z,701.48
2016-02-15T00:00:23.191Z,701.59
2016-02-15T00:00:36.472Z,701.7
2016-02-15T00:00:49.722Z,701.68
2016-02-15T00:01:02.847Z,701.64
2016-02-15T00:01:16.115Z,701.63
2016-02-15T00:01:29.427Z,701.53
2016-02-15T00:01:42.724Z,701.66
2016-02-15T00:01:55.990Z,701.71
2016-02-15T00:02:09.258Z,701.78
2016-02-15T00:02:22.524Z,701.72
2016-02-15T00:02:35.790Z,701.75
2016-02-15T00:02:49.071Z,701.69
2016-02-15T00:03:02.368Z,701.69
2016-02-15T00:03:15.652Z,701.56
2016-02-15T00:03:28.918Z,701.65
2016-02-15T00:03:42.183Z,701.67
2016-02-15T00:03:55.433Z,701.72
2016-02-15T00:04:08.732Z,701.71
2016-02-15T00:04:22.013Z,701.74
2016-02-15T00:04:35.279Z,701.66
2016-02-15T00:04:48.592Z,701.64
2016-02-15T00:05:01.904Z,701.67
2016-02-15T00:05:15.172Z,701.67
2016-02-15T00:05:28.437Z,701.58
2016-02-15T00:05:41.703Z,701.72
2016-02-15T00:05:54.984Z,701.55
2016-02-15T00:06:08.269Z,701.63
2016-02-15T00:06:21.551Z,701.63
2016-02-15T00:06:34.848Z,701.73
2016-02-15T00:06:48.129Z,701.65
2016-02-15T00:07:01.441Z,701.66
2016-02-15T00:07:14.740Z,701.62
2016-02-15T00:07:27.850Z,701.72
2016-02-15T00:07:41.115Z,701.62
2016-02-15T00:07:54.381Z,701.63
2016-02-15T00:08:07.649Z,701.62
2016-02-15T00:08:20.931Z,701.64
2016-02-15T00:08:34.212Z,701.59
2016-02-15T00:08:47.509Z,701.62
2016-02-15T00:09:00.821Z,701.7
2016-02-15T00:09:14.090Z,701.67
2016-02-15T00:09:27.340Z,701.51
2016-02-15T00:09:40.621Z,701.61
2016-02-15T00:09:53.887Z,701.57
2016-02-15T00:10:07.170Z,701.57
2016-02-15T00:10:20.498Z,701.54
2016-02-15T00:10:33.795Z,701.53
2016-02-15T00:10:47.108Z,701.58
2016-02-15T00:11:00.373Z,701.56
2016-02-15T00:11:13.642Z,701.58
2016-02-15T00:11:27.142Z,701.53
2016-02-15T00:11:40.407Z,701.54
2016-02-15T00:11:53.704Z,701.63
2016-02-15T00:12:06.973Z,701.51
2016-02-15T00:12:20.114Z,701.68
2016-02-15T00:12:33.254Z,701.67
2016-02-15T00:12:46.520Z,701.62
2016-02-15T00:12:59.785Z,701.48
2016-02-15T00:13:13.053Z,701.64
2016-02-15T00:13:26.303Z,701.59
2016-02-15T00:13:39.600Z,701.49
2016-02-15T00:13:52.897Z,701.54
2016-02-15T00:14:06.212Z,701.56
2016-02-15T00:14:19.478Z,701.57
2016-02-15T00:14:32.744Z,701.56
2016-02-15T00:14:46.040Z,701.51
2016-02-15T00:14:59.290Z,701.59
2016-02-15T00:15:12.575Z,701.5
2016-02-15T00:15:25.856Z,701.57
2016-02-15T00:15:39.137Z,701.67
2016-02-15T00:15:52.418Z,701.63
2016-02-15T00:16:05.703Z,701.68
2016-02-15T00:16:18.953Z,701.6
2016-02-15T00:16:32.218Z,701.61
2016-02-15T00:16:45.484Z,701.66
2016-02-15T00:16:58.750Z,701.59
2016-02-15T00:17:12.033Z,701.61
2016-02-15T00:17:25.314Z,701.65
2016-02-15T00:17:38.642Z,701.57
2016-02-15T00:17:51.892Z,701.62
2016-02-15T00:18:05.158Z,701.57
2016-02-15T00:18:18.411Z,701.6
2016-02-15T00:18:31.676Z,701.55
2016-02-15T00:18:44.958Z,701.65
2016-02-15T00:18:58.239Z,701.64
2016-02-15T00:19:11.522Z,701.57
2016-02-15T00:19:24.835Z,701.58
2016-02-15T00:19:38.147Z,701.6
2016-02-15T00:19:51.413Z,701.57
2016-02-15T00:20:04.678Z,701.64
2016-02-15T00:20:17.948Z,701.62
2016-02-15T00:20:31.198Z,701.59
2016-02-15T00:20:44.464Z,701.58
2016-02-15T00:20:57.745Z,701.52
2016-02-15T00:21:11.013Z,701.52
2016-02-15T00:21:24.294Z,701.59
2016-02-15T00:21:37.575Z,701.53
2016-02-15T00:21:50.809Z,701.63
2016-02-15T00:22:04.075Z,701.53
2016-02-15T00:22:17.390Z,701.52
2016-02-15T00:22:30.686Z,701.55
2016-02-15T00:22:44.015Z,701.59
2016-02-15T00:22:57.296Z,701.54
2016-02-15T00:23:10.549Z,701.59
2016-02-15T00:23:23.814Z,701.58
2016-02-15T00:23:37.080Z,701.64
2016-02-15T00:23:50.346Z,701.61
2016-02-15T00:24:03.643Z,701.56
2016-02-15T00:24:16.958Z,701.58
2016-02-15T00:24:30.255Z,701.5
2016-02-15T00:24:43.505Z,701.55
2016-02-15T00:24:56.771Z,701.51
2016-02-15T00:25:10.039Z,701.57
2016-02-15T00:25:23.305Z,701.5
2016-02-15T00:25:36.602Z,701.54
2016-02-15T00:25:49.899Z,701.48
2016-02-15T00:26:03.195Z,701.49
2016-02-15T00:26:16.494Z,701.47
2016-02-15T00:26:29.760Z,701.48
2016-02-15T00:26:43.026Z,701.48
2016-02-15T00:26:56.291Z,701.54
2016-02-15T00:27:09.575Z,701.54
2016-02-15T00:27:22.825Z,701.58
2016-02-15T00:27:36.107Z,701.58
2016-02-15T00:27:49.404Z,701.63
2016-02-15T00:28:02.700Z,701.52
2016-02-15T00:28:16.000Z,701.55
2016-02-15T00:28:29.266Z,701.51
2016-02-15T00:28:42.532Z,701.65
2016-02-15T00:28:55.813Z,701.58
2016-02-15T00:29:09.080Z,701.61
2016-02-15T00:29:22.346Z,701.57
2016-02-15T00:29:35.643Z,701.63
2016-02-15T00:29:48.940Z,701.57
2016-02-15T00:30:02.252Z,701.59
2016-02-15T00:30:15.552Z,701.55
2016-02-15T00:30:28.818Z,701.63
2016-02-15T00:30:41.927Z,701.62
2016-02-15T00:30:55.193Z,701.59
2016-02-15T00:31:08.446Z,701.67
2016-02-15T00:31:21.743Z,701.53
2016-02-15T00:31:35.024Z,701.7
2016-02-15T00:31:48.180Z,701.65
2016-02-15T00:32:01.493Z,701.61
2016-02-15T00:32:14.760Z,701.61
2016-02-15T00:32:28.026Z,701.58
2016-02-15T00:32:41.292Z,701.62
2016-02-15T00:32:54.557Z,701.68
2016-02-15T00:33:07.811Z,701.7
2016-02-15T00:33:20.936Z,701.69
2016-02-15T00:33:34.233Z,701.65
2016-02-15T00:33:47.577Z,701.63
2016-02-15T00:34:00.827Z,701.64
2016-02-15T00:34:14.094Z,701.6
2016-02-15T00:34:27.376Z,701.65
2016-02-15T00:34:40.641Z,701.69
2016-02-15T00:34:53.907Z,701.63
2016-02-15T00:35:07.190Z,701.67
2016-02-15T00:35:20.503Z,701.66
2016-02-15T00:35:33.815Z,701.69
2016-02-15T00:35:47.096Z,701.71
2016-02-15T00:36:00.346Z,701.65
2016-02-15T00:36:13.616Z,701.72
2016-02-15T00:36:26.882Z,701.73
2016-02-15T00:36:40.147Z,701.71
2016-02-15T00:36:53.413Z,701.7
2016-02-15T00:37:06.571Z,701.7
2016-02-15T00:37:19.852Z,701.72
2016-02-15T00:37:33.118Z,701.68
2016-02-15T00:37:46.384Z,701.74
2016-02-15T00:37:59.649Z,701.7
2016-02-15T00:38:12.917Z,701.73
2016-02-15T00:38:26.183Z,701.71
2016-02-15T00:38:39.464Z,701.74
2016-02-15T00:38:52.745Z,701.69
2016-02-15T00:39:06.061Z,701.74
2016-02-15T00:39:19.357Z,701.71
2016-02-15T00:39:32.639Z,701.72
2016-02-15T00:39:45.904Z,701.74
2016-02-15T00:39:59.170Z,701.64
2016-02-15T00:40:12.439Z,701.63
2016-02-15T00:40:25.689Z,701.7
2016-02-15T00:40:38.970Z,701.7
2016-02-15T00:40:52.267Z,701.7
2016-02-15T00:41:05.579Z,701.77
2016-02-15T00:41:18.926Z,701.73
2016-02-15T00:41:32.176Z,701.76
2016-02-15T00:41:45.442Z,701.65
2016-02-15T00:41:58.692Z,701.65
2016-02-15T00:42:11.959Z,701.65
2016-02-15T00:42:25.225Z,701.75
2016-02-15T00:42:38.506Z,701.7
2016-02-15T00:42:51.803Z,701.73
2016-02-15T00:43:05.100Z,701.75
2016-02-15T00:43:18.384Z,701.77
2016-02-15T00:43:31.650Z,701.7
2016-02-15T00:43:44.915Z,701.74
2016-02-15T00:43:58.165Z,701.74
2016-02-15T00:44:11.434Z,701.75
2016-02-15T00:44:24.715Z,701.72
2016-02-15T00:44:37.996Z,701.75
2016-02-15T00:44:51.293Z,701.73
2016-02-15T00:45:04.606Z,701.68
2016-02-15T00:45:17.921Z,701.7
2016-02-15T00:45:31.203Z,701.71
2016-02-15T00:45:44.468Z,701.73
2016-02-15T00:45:57.734Z,701.69
2016-02-15T00:46:11.001Z,701.68
2016-02-15T00:46:24.283Z,701.79
2016-02-15T00:46:37.564Z,701.75
2016-02-15T00:46:50.845Z,701.73
2016-02-15T00:47:03.830Z,701.71
2016-02-15T00:47:17.097Z,701.74
2016-02-15T00:47:30.363Z,701.75
2016-02-15T00:47:43.628Z,701.72
2016-02-15T00:47:56.894Z,701.71
2016-02-15T00:48:10.179Z,701.78
2016-02-15T00:48:23.461Z,701.76
2016-02-15T00:48:36.757Z,701.76
2016-02-15T00:48:50.054Z,701.72
2016-02-15T00:49:02.851Z,701.75
2016-02-15T00:49:16.103Z,701.75
2016-02-15T00:49:29.400Z,701.78
2016-02-15T00:49:42.681Z,701.74
2016-02-15T00:49:55.947Z,701.76
2016-02-15T00:50:09.247Z,701.78
2016-02-15T00:50:22.403Z,701.79
2016-02-15T00:50:35.700Z,701.78
2016-02-15T00:50:48.966Z,701.83
2016-02-15T00:51:02.216Z,701.8
2016-02-15T00:51:15.484Z,701.77
2016-02-15T00:51:28.734Z,701.81
2016-02-15T00:51:42.000Z,701.78
2016-02-15T00:51:55.265Z,701.77
2016-02-15T00:52:08.533Z,701.75
2016-02-15T00:52:21.830Z,701.77
2016-02-15T00:52:35.111Z,701.77
2016-02-15T00:52:48.455Z,701.77
2016-02-15T00:53:01.705Z,701.8
2016-02-15T00:53:14.958Z,701.81
2016-02-15T00:53:28.208Z,701.81
2016-02-15T00:53:41.489Z,701.84
2016-02-15T00:53:54.770Z,701.85
2016-02-15T00:54:08.039Z,701.88
2016-02-15T00:54:21.320Z,701.92
2016-02-15T00:54:34.586Z,701.85
2016-02-15T00:54:47.852Z,701.9
2016-02-15T00:55:01.102Z,701.86
2016-02-15T00:55:14.369Z,701.86
2016-02-15T00:55:27.635Z,701.91
2016-02-15T00:55:40.916Z,701.97
2016-02-15T00:55:54.213Z,701.95
2016-02-15T00:56:07.513Z,701.93
2016-02-15T00:56:20.825Z,701.97
2016-02-15T00:56:34.091Z,701.91
2016-02-15T00:56:47.357Z,701.92
2016-02-15T00:57:00.638Z,701.91
2016-02-15T00:57:13.906Z,701.93
2016-02-15T00:57:27.188Z,701.97
2016-02-15T00:57:40.469Z,701.95
2016-02-15T00:57:53.781Z,701.95
2016-02-15T00:58:07.081Z,701.95
2016-02-15T00:58:20.331Z,701.92
2016-02-15T00:58:33.441Z,701.96
2016-02-15T00:58:46.722Z,701.95
2016-02-15T00:58:59.972Z,701.97
2016-02-15T00:59:13.240Z,701.93
2016-02-15T00:59:26.521Z,701.94
2016-02-15T00:59:39.833Z,701.98
2016-02-15T00:59:53.099Z,701.93
2016-02-15T01:00:06.367Z,701.97
2016-02-15T01:00:19.648Z,701.97
2016-02-15T01:00:32.913Z,701.95
2016-02-15T01:00:46.195Z,701.94
2016-02-15T01:00:59.476Z,701.97
2016-02-15T01:01:12.777Z,701.95
2016-02-15T01:01:26.089Z,701.94
2016-02-15T01:01:39.386Z,701.92
2016-02-15T01:01:52.636Z,701.96
2016-02-15T01:02:05.902Z,701.97
2016-02-15T01:02:19.169Z,701.95
2016-02-15T01:02:32.435Z,701.94
2016-02-15T01:02:45.701Z,701.97
2016-02-15T01:02:58.982Z,701.94
2016-02-15T01:03:12.281Z,701.97
2016-02-15T01:03:25.578Z,701.94
2016-02-15T01:03:38.906Z,701.95
2016-02-15T01:03:52.171Z,701.96
2016-02-15T01:04:05.453Z,701.96
2016-02-15T01:04:18.565Z,701.95
2016-02-15T01:04:31.706Z,701.98
2016-02-15T01:04:44.987Z,701.94
2016-02-15T01:04:58.143Z,701.97
2016-02-15T01:05:11.474Z,701.95
2016-02-15T01:05:24.818Z,701.96
2016-02-15T01:05:38.287Z,701.95
2016-02-15T01:05:51.552Z,701.97
2016-02-15T01:06:04.662Z,701.93
2016-02-15T01:06:17.915Z,701.96
2016-02-15T01:06:31.040Z,701.98
2016-02-15T01:06:44.321Z,701.99
2016-02-15T01:06:57.618Z,701.97
2016-02-15T01:07:10.902Z,701.93
2016-02-15T01:07:24.199Z,701.96
2016-02-15T01:07:37.496Z,701.95
2016-02-15T01:07:50.762Z,701.97
2016-02-15T01:08:04.012Z,701.94
2016-02-15T01:08:17.279Z,701.91
2016-02-15T01:08:30.545Z,701.97
2016-02-15T01:08:43.810Z,701.98
2016-02-15T01:08:57.123Z,702
2016-02-15T01:09:10.423Z,701.93
2016-02-15T01:09:23.688Z,701.97
2016-02-15T01:09:36.954Z,702.04
2016-02-15T01:09:50.235Z,702.02
2016-02-15T01:10:03.329Z,702.01
2016-02-15T01:10:16.598Z,702.02
2016-02-15T01:10:29.895Z,702.05
2016-02-15T01:10:43.176Z,702.04
2016-02-15T01:10:56.457Z,702.04
2016-02-15T01:11:09.740Z,702.04
2016-02-15T01:11:23.006Z,702.06
2016-02-15T01:11:36.256Z,702.03
2016-02-15T01:11:49.537Z,702.03
2016-02-15T01:12:02.678Z,702.04
2016-02-15T01:12:15.991Z,702.07
2016-02-15T01:12:29.257Z,702.04
2016-02-15T01:12:42.523Z,702.05
2016-02-15T01:12:55.788Z,702.07
2016-02-15T01:13:09.047Z,702.05
2016-02-15T01:13:22.328Z,702.03
2016-02-15T01:13:35.594Z,702.08
2016-02-15T01:13:48.875Z,702.05
2016-02-15T01:14:02.156Z,702.08
2016-02-15T01:14:15.397Z,702.06
2016-02-15T01:14:28.694Z,702.03
2016-02-15T01:14:41.975Z,702.02
2016-02-15T01:14:55.257Z,702.07
2016-02-15T01:15:08.530Z,702.07
2016-02-15T01:15:21.842Z,702.08
2016-02-15T01:15:35.139Z,702.1
2016-02-15T01:15:48.389Z,702.1
2016-02-15T01:16:01.670Z,702.08
2016-02-15T01:16:14.927Z,702.08
2016-02-15T01:16:28.193Z,702.08
2016-02-15T01:16:41.458Z,702.1
2016-02-15T01:16:54.740Z,702.07
2016-02-15T01:17:08.028Z,702.1
2016-02-15T01:17:21.341Z,702.1
2016-02-15T01:17:34.591Z,702.08
2016-02-15T01:17:47.857Z,702.09
2016-02-15T01:18:01.122Z,702.09
2016-02-15T01:18:14.387Z,702.05
2016-02-15T01:18:27.668Z,702.07
2016-02-15T01:18:40.934Z,702.1
2016-02-15T01:18:54.246Z,702.1
2016-02-15T01:19:07.369Z,702.09
2016-02-15T01:19:20.635Z,702.05
2016-02-15T01:19:33.885Z,702.07
2016-02-15T01:19:47.166Z,702.08
2016-02-15T01:20:00.432Z,702.06
2016-02-15T01:20:13.711Z,702.06
2016-02-15T01:20:27.008Z,702.06
2016-02-15T01:20:40.305Z,702.03
2016-02-15T01:20:53.523Z,702.08
2016-02-15T01:21:06.788Z,702.12
2016-02-15T01:21:20.069Z,702.09
2016-02-15T01:21:33.319Z,702.09
2016-02-15T01:21:46.585Z,702.11
2016-02-15T01:21:59.882Z,702.09
2016-02-15T01:22:18.975Z,702.1
2016-02-15T01:22:32.256Z,702.14
2016-02-15T01:22:45.537Z,702.07
2016-02-15T01:22:58.834Z,702.09
2016-02-15T01:23:12.132Z,702.07
2016-02-15T01:23:25.397Z,702.13
2016-02-15T01:23:38.679Z,702.1
2016-02-15T01:23:51.913Z,702.12
2016-02-15T01:24:05.179Z,702.13
2016-02-15T01:24:18.431Z,702.12
2016-02-15T01:24:31.712Z,702.08
2016-02-15T01:24:45.024Z,702.08
2016-02-15T01:24:58.337Z,702.08
2016-02-15T01:25:11.618Z,702.1
2016-02-15T01:25:24.868Z,702.12
2016-02-15T01:25:38.134Z,702.09
2016-02-15T01:25:51.399Z,702.09
2016-02-15T01:26:04.665Z,702.11
2016-02-15T01:26:17.947Z,702.1
2016-02-15T01:26:31.229Z,702.11
2016-02-15T01:26:44.525Z,702.1
2016-02-15T01:26:57.791Z,702.11
2016-02-15T01:27:11.059Z,702.09
2016-02-15T01:27:24.324Z,702.08
2016-02-15T01:27:37.574Z,702.1
2016-02-15T01:27:50.856Z,702.08
2016-02-15T01:28:03.965Z,702.09
2016-02-15T01:28:17.092Z,702.11
2016-02-15T01:28:30.389Z,702.14
2016-02-15T01:28:43.639Z,702.11
2016-02-15T01:28:56.889Z,702.13
2016-02-15T01:29:10.156Z,702.11
2016-02-15T01:29:23.406Z,702.11
2016-02-15T01:29:36.672Z,702.1
2016-02-15T01:29:49.969Z,702.1
2016-02-15T01:30:03.266Z,702.1
2016-02-15T01:30:16.550Z,702.1
2016-02-15T01:30:29.816Z,702.11
2016-02-15T01:30:43.097Z,702.12
2016-02-15T01:30:56.347Z,702.11
2016-02-15T01:31:09.615Z,702.12
2016-02-15T01:31:22.911Z,702.09
2016-02-15T01:31:36.193Z,702.09
2016-02-15T01:31:49.490Z,702.12
2016-02-15T01:32:02.802Z,702.12
2016-02-15T01:32:16.071Z,702.11
2016-02-15T01:32:29.336Z,702.12
2016-02-15T01:32:42.586Z,702.11
2016-02-15T01:32:55.868Z,702.11
2016-02-15T01:33:09.151Z,702.11
2016-02-15T01:33:22.448Z,702.09
2016-02-15T01:33:35.745Z,702.1
2016-02-15T01:33:49.073Z,702.12
2016-02-15T01:34:02.338Z,702.11
2016-02-15T01:34:15.606Z,702.1
2016-02-15T01:34:28.856Z,702.13
2016-02-15T01:34:42.137Z,702.11
2016-02-15T01:34:55.403Z,702.1
2016-02-15T01:35:08.704Z,702.13
2016-02-15T01:35:22.001Z,702.16
2016-02-15T01:35:35.532Z,702.14
2016-02-15T01:35:48.860Z,702.16
2016-02-15T01:36:02.110Z,702.17
2016-02-15T01:36:15.378Z,702.19
2016-02-15T01:36:28.643Z,702.17
2016-02-15T01:36:41.909Z,702.18
2016-02-15T01:36:55.174Z,702.14
2016-02-15T01:37:08.442Z,702.16
2016-02-15T01:37:21.723Z,702.19
2016-02-15T01:37:35.005Z,702.21
2016-02-15T01:37:48.317Z,702.18
2016-02-15T01:38:01.567Z,702.2
2016-02-15T01:38:14.837Z,702.24
2016-02-15T01:38:28.102Z,702.25
2016-02-15T01:38:41.368Z,702.21
2016-02-15T01:38:54.634Z,702.24
2016-02-15T01:39:07.932Z,702.22
2016-02-15T01:39:21.229Z,702.24
2016-02-15T01:39:34.557Z,702.21
2016-02-15T01:39:47.807Z,702.24
2016-02-15T01:40:01.073Z,702.22
2016-02-15T01:40:14.342Z,702.25
2016-02-15T01:40:27.592Z,702.25
2016-02-15T01:40:40.873Z,702.22
2016-02-15T01:40:54.154Z,702.2
2016-02-15T01:41:07.438Z,702.22
2016-02-15T01:41:20.735Z,702.24
2016-02-15T01:41:34.048Z,702.24
2016-02-15T01:41:47.173Z,702.23
2016-02-15T01:42:00.313Z,702.23
2016-02-15T01:42:13.581Z,702.25
2016-02-15T01:42:26.847Z,702.26
2016-02-15T01:42:40.128Z,702.23
2016-02-15T01:42:53.409Z,702.21
2016-02-15T01:43:06.725Z,702.24
2016-02-15T01:43:20.022Z,702.21
2016-02-15T01:43:33.318Z,702.24
2016-02-15T01:43:46.568Z,702.21
2016-02-15T01:43:59.834Z,702.24
2016-02-15T01:44:13.103Z,702.23
2016-02-15T01:44:26.384Z,702.23
2016-02-15T01:44:39.650Z,702.21
2016-02-15T01:44:52.946Z,702.2
2016-02-15T01:45:06.259Z,702.23
2016-02-15T01:45:19.542Z,702.21
2016-02-15T01:45:32.808Z,702.22
2016-02-15T01:45:46.058Z,702.22
2016-02-15T01:45:59.355Z,702.22
2016-02-15T01:46:12.655Z,702.23
2016-02-15T01:46:25.920Z,702.18
2016-02-15T01:46:39.201Z,702.17
2016-02-15T01:46:52.498Z,702.21
2016-02-15T01:47:05.639Z,702.19
2016-02-15T01:47:18.923Z,702.2
2016-02-15T01:47:32.173Z,702.19
2016-02-15T01:47:45.283Z,702.23
2016-02-15T01:47:58.548Z,702.2
2016-02-15T01:48:11.816Z,702.18
2016-02-15T01:48:25.113Z,702.19
2016-02-15T01:48:38.425Z,702.16
2016-02-15T01:48:51.691Z,702.18
2016-02-15T01:49:04.972Z,702.11
2016-02-15T01:49:18.226Z,702.16
2016-02-15T01:49:31.492Z,702.13
2016-02-15T01:49:44.757Z,702.11
2016-02-15T01:49:58.039Z,702.13
2016-02-15T01:50:11.322Z,702.14
2016-02-15T01:50:24.634Z,702.12
2016-02-15T01:50:37.916Z,702.18
2016-02-15T01:50:51.197Z,702.15
2016-02-15T01:51:04.462Z,702.16
2016-02-15T01:51:17.574Z,702.13
2016-02-15T01:51:30.886Z,702.12
2016-02-15T01:51:44.152Z,702.17
2016-02-15T01:51:57.464Z,702.11
2016-02-15T01:52:10.764Z,702.12
2016-02-15T01:52:24.046Z,702.12
2016-02-15T01:52:37.327Z,702.17
2016-02-15T01:52:50.624Z,702.14
2016-02-15T01:53:03.921Z,702.11
2016-02-15T01:53:17.220Z,702.12
2016-02-15T01:53:30.470Z,702.18
2016-02-15T01:53:43.736Z,702.17
2016-02-15T01:53:56.986Z,702.13
2016-02-15T01:54:10.254Z,702.17
2016-02-15T01:54:23.535Z,702.17
2016-02-15T01:54:36.816Z,702.27
2016-02-15T01:54:50.129Z,702.19
2016-02-15T01:55:03.441Z,702.22
2016-02-15T01:55:16.710Z,702.2
2016-02-15T01:55:29.975Z,702.19
2016-02-15T01:55:43.225Z,702.25
2016-02-15T01:55:56.491Z,702.28
2016-02-15T01:56:09.775Z,702.24
2016-02-15T01:56:23.088Z,702.19
2016-02-15T01:56:36.385Z,702.29
2016-02-15T01:56:49.682Z,702.26
2016-02-15T01:57:02.947Z,702.28
2016-02-15T01:57:16.215Z,702.28
2016-02-15T01:57:29.480Z,702.25
2016-02-15T01:57:42.746Z,702.29
2016-02-15T01:57:56.012Z,702.3
2016-02-15T01:58:09.297Z,702.31
2016-02-15T01:58:22.594Z,702.27
2016-02-15T01:58:35.891Z,702.32
2016-02-15T01:58:49.141Z,702.31
2016-02-15T01:59:02.406Z,702.28
2016-02-15T01:59:15.674Z,702.32
2016-02-15T01:59:28.955Z,702.32
2016-02-15T01:59:42.236Z,702.32
2016-02-15T01:59:55.549Z,702.31
2016-02-15T02:00:08.863Z,702.31
2016-02-15T02:00:22.145Z,702.37
2016-02-15T02:00:35.410Z,702.35
2016-02-15T02:00:48.660Z,702.37
2016-02-15T02:01:01.942Z,702.4
2016-02-15T02:01:15.196Z,702.37
2016-02-15T02:01:28.492Z,702.35
2016-02-15T02:01:41.758Z,702.33
2016-02-15T02:01:55.086Z,702.36
2016-02-15T02:02:08.385Z,702.34
2016-02-15T02:02:21.666Z,702.39
2016-02-15T02:02:34.932Z,702.36
2016-02-15T02:02:48.182Z,702.32
2016-02-15T02:03:01.448Z,702.34
2016-02-15T02:03:14.715Z,702.33
2016-02-15T02:03:28.043Z,702.34
2016-02-15T02:03:41.340Z,702.36
2016-02-15T02:03:54.653Z,702.35
2016-02-15T02:04:07.938Z,702.35
2016-02-15T02:04:21.188Z,702.36
2016-02-15T02:04:34.313Z,702.34
2016-02-15T02:04:47.579Z,702.32
2016-02-15T02:05:00.844Z,702.32
2016-02-15T02:05:14.127Z,702.34
2016-02-15T02:05:27.424Z,702.36
2016-02-15T02:05:40.752Z,702.36
2016-02-15T02:05:54.049Z,702.34
2016-02-15T02:06:07.334Z,702.32
2016-02-15T02:06:20.584Z,702.32
2016-02-15T02:06:33.865Z,702.32
2016-02-15T02:06:46.990Z,702.33
2016-02-15T02:07:00.115Z,702.34
2016-02-15T02:07:13.415Z,702.34
2016-02-15T02:07:26.665Z,702.33
2016-02-15T02:07:39.946Z,702.36
2016-02-15T02:07:53.227Z,702.39
2016-02-15T02:08:06.540Z,702.34
2016-02-15T02:08:19.854Z,702.36
2016-02-15T02:08:33.135Z,702.32
2016-02-15T02:08:46.385Z,702.33
2016-02-15T02:08:59.651Z,702.4
2016-02-15T02:09:12.920Z,702.39
2016-02-15T02:09:26.170Z,702.39
2016-02-15T02:09:39.451Z,702.31
2016-02-15T02:09:52.732Z,702.32
2016-02-15T02:10:06.013Z,702.34
2016-02-15T02:10:19.282Z,702.34
2016-02-15T02:10:32.532Z,702.37
2016-02-15T02:10:45.798Z,702.36
2016-02-15T02:10:59.063Z,702.4
2016-02-15T02:11:12.331Z,702.38
2016-02-15T02:11:25.628Z,702.34
2016-02-15T02:11:38.940Z,702.35
2016-02-15T02:11:52.253Z,702.35
2016-02-15T02:12:05.550Z,702.37
2016-02-15T02:12:18.834Z,702.34
2016-02-15T02:12:32.084Z,702.37
2016-02-15T02:12:45.365Z,702.35
2016-02-15T02:12:58.646Z,702.35
2016-02-15T02:13:11.931Z,702.36
2016-02-15T02:13:25.212Z,702.35
2016-02-15T02:13:38.509Z,702.39
2016-02-15T02:13:51.618Z,702.34
2016-02-15T02:14:04.884Z,702.39
2016-02-15T02:14:18.151Z,702.36
2016-02-15T02:14:31.417Z,702.37
2016-02-15T02:14:44.698Z,702.37
2016-02-15T02:14:57.980Z,702.33
2016-02-15T02:15:11.279Z,702.37
2016-02-15T02:15:24.576Z,702.38
2016-02-15T02:15:37.842Z,702.31
2016-02-15T02:15:51.108Z,702.37
2016-02-15T02:16:04.389Z,702.38
2016-02-15T02:16:17.657Z,702.39
2016-02-15T02:16:30.954Z,702.38
2016-02-15T02:16:44.220Z,702.44
2016-02-15T02:16:57.532Z,702.47
2016-02-15T02:17:10.800Z,702.46
2016-02-15T02:17:24.081Z,702.45
2016-02-15T02:17:37.347Z,702.43
2016-02-15T02:17:50.613Z,702.45
2016-02-15T02:18:03.878Z,702.45
2016-02-15T02:18:17.147Z,702.45
2016-02-15T02:18:30.459Z,702.45
2016-02-15T02:18:43.741Z,702.5
2016-02-15T02:18:57.006Z,702.48
2016-02-15T02:19:10.275Z,702.44
2016-02-15T02:19:23.556Z,702.44
2016-02-15T02:19:36.806Z,702.5
2016-02-15T02:19:50.087Z,702.42
2016-02-15T02:20:03.369Z,702.47
2016-02-15T02:20:16.714Z,702.5
2016-02-15T02:20:29.996Z,702.48
2016-02-15T02:20:43.261Z,702.48
2016-02-15T02:20:56.527Z,702.45
2016-02-15T02:21:09.780Z,702.46
2016-02-15T02:21:23.061Z,702.47
2016-02-15T02:21:36.327Z,702.52
2016-02-15T02:21:49.592Z,702.5
2016-02-15T02:22:02.905Z,702.51
2016-02-15T02:22:16.189Z,702.51
2016-02-15T02:22:29.502Z,702.47
2016-02-15T02:22:42.767Z,702.53
2016-02-15T02:22:56.033Z,702.48
2016-02-15T02:23:09.301Z,702.52
2016-02-15T02:23:22.583Z,702.53
2016-02-15T02:23:35.848Z,702.52
2016-02-15T02:23:49.098Z,702.51
2016-02-15T02:24:02.364Z,702.5
2016-02-15T02:24:15.632Z,702.5
2016-02-15T02:24:28.897Z,702.51
2016-02-15T02:24:42.163Z,702.5
2016-02-15T02:24:55.319Z,702.47
2016-02-15T02:25:08.635Z,702.46
2016-02-15T02:25:21.900Z,702.49
2016-02-15T02:25:35.166Z,702.46
2016-02-15T02:25:48.431Z,702.46
2016-02-15T02:26:01.713Z,702.46
2016-02-15T02:26:14.996Z,702.52
2016-02-15T02:26:28.262Z,702.51
2016-02-15T02:26:41.558Z,702.52
2016-02-15T02:26:54.855Z,702.52
2016-02-15T02:27:08.109Z,702.54
2016-02-15T02:27:21.375Z,702.54
2016-02-15T02:27:34.641Z,702.52
2016-02-15T02:27:47.906Z,702.53
2016-02-15T02:28:01.172Z,702.56
2016-02-15T02:28:14.471Z,702.57
2016-02-15T02:28:27.768Z,702.54
2016-02-15T02:28:41.033Z,702.52
2016-02-15T02:28:54.299Z,702.57
2016-02-15T02:29:07.566Z,702.56
2016-02-15T02:29:20.832Z,702.59
2016-02-15T02:29:34.098Z,702.57
2016-02-15T02:29:47.379Z,702.55
2016-02-15T02:30:00.660Z,702.62
2016-02-15T02:30:13.992Z,702.56
2016-02-15T02:30:27.289Z,702.57
2016-02-15T02:30:40.555Z,702.56
2016-02-15T02:30:53.805Z,702.56
2016-02-15T02:31:07.086Z,702.59
2016-02-15T02:31:20.354Z,702.57
2016-02-15T02:31:33.479Z,702.57
2016-02-15T02:31:46.760Z,702.55
2016-02-15T02:32:00.072Z,702.59
2016-02-15T02:32:13.372Z,702.62
2016-02-15T02:32:26.638Z,702.65
2016-02-15T02:32:39.888Z,702.59
2016-02-15T02:32:53.154Z,702.64
2016-02-15T02:33:06.419Z,702.65
2016-02-15T02:33:19.687Z,702.63
2016-02-15T02:33:32.812Z,702.66
2016-02-15T02:33:46.109Z,702.68
2016-02-15T02:33:59.406Z,702.69
2016-02-15T02:34:12.674Z,702.68
2016-02-15T02:34:25.940Z,702.64
2016-02-15T02:34:39.190Z,702.69
2016-02-15T02:34:52.455Z,702.73
2016-02-15T02:35:05.752Z,702.72
2016-02-15T02:35:19.037Z,702.71
2016-02-15T02:35:32.349Z,702.72
2016-02-15T02:35:45.615Z,702.74
2016-02-15T02:35:58.880Z,702.71
2016-02-15T02:36:12.149Z,702.73
2016-02-15T02:36:25.415Z,702.73
2016-02-15T02:36:38.696Z,702.72
2016-02-15T02:36:51.961Z,702.74
2016-02-15T02:37:05.274Z,702.72
2016-02-15T02:37:18.573Z,702.72
2016-02-15T02:37:31.885Z,702.71
2016-02-15T02:37:45.151Z,702.74
2016-02-15T02:37:58.260Z,702.74
2016-02-15T02:38:11.513Z,702.75
2016-02-15T02:38:24.779Z,702.74
2016-02-15T02:38:38.060Z,702.77
2016-02-15T02:38:51.326Z,702.75
2016-02-15T02:39:04.638Z,702.74
2016-02-15T02:39:17.938Z,702.75
2016-02-15T02:39:31.251Z,702.75
2016-02-15T02:39:44.516Z,702.73
2016-02-15T02:39:57.798Z,702.74
2016-02-15T02:40:11.065Z,702.76
2016-02-15T02:40:24.315Z,702.73
2016-02-15T02:40:37.581Z,702.76
2016-02-15T02:40:50.706Z,702.76
2016-02-15T02:41:03.987Z,702.76
2016-02-15T02:41:17.303Z,702.75
2016-02-15T02:41:30.568Z,702.73
2016-02-15T02:41:43.849Z,702.75
2016-02-15T02:41:57.099Z,702.77
2016-02-15T02:42:10.368Z,702.78
2016-02-15T02:42:23.649Z,702.76
2016-02-15T02:42:36.931Z,702.81
2016-02-15T02:42:50.212Z,702.8
2016-02-15T02:43:03.524Z,702.8
2016-02-15T02:43:16.808Z,702.8
2016-02-15T02:43:30.073Z,702.8
2016-02-15T02:43:43.339Z,702.79
2016-02-15T02:43:56.604Z,702.82
2016-02-15T02:44:09.873Z,702.79
2016-02-15T02:44:23.154Z,702.81
2016-02-15T02:44:36.467Z,702.8
2016-02-15T02:44:49.748Z,702.85
2016-02-15T02:45:03.014Z,702.82
2016-02-15T02:45:16.282Z,702.83
2016-02-15T02:45:29.564Z,702.8
2016-02-15T02:45:42.829Z,702.85
2016-02-15T02:45:56.095Z,702.83
2016-02-15T02:46:09.409Z,702.82